Time;durP1;ratioP1;P1;durP2;ratioP2;P2;SDS_P1;SDS_P2;PMS_P1;PMS_P2;Temp;Humidity;BMP_temperature;BMP_pressure;BME280_temperature;BME280_humidity;BME280_pressure;Samples;Min_cycle;Max_cycle;Signal;HPM_P1;HPM_P2
2023/03/12 00:00:18;;;;;;;6.93;3.20;;;;;;;4.10;73.59;94273.28;4942422;28;20322;-74
2023/03/12 00:02:44;;;;;;;9.60;3.30;;;;;;;4.14;73.39;94276.31;4929416;28;20292;-76
2023/03/12 00:05:10;;;;;;;10.57;3.50;;;;;;;4.12;73.54;94279.09;4970451;28;20233;-75
2023/03/12 00:07:35;;;;;;;6.83;3.53;;;;;;;4.09;73.34;94287.22;4934602;28;20228;-75
2023/03/12 00:10:02;;;;;;;8.40;3.57;;;;;;;4.04;73.38;94292.91;4943203;28;20233;-75
2023/03/12 00:12:28;;;;;;;6.40;3.50;;;;;;;4.13;73.53;94303.22;4969015;28;20232;-75
2023/03/12 00:14:53;;;;;;;7.43;3.63;;;;;;;4.11;72.79;94293.00;4913011;28;20229;-75
2023/03/12 00:17:19;;;;;;;6.40;3.73;;;;;;;4.03;73.22;94309.44;4951370;28;20700;-75
2023/03/12 00:19:44;;;;;;;7.47;3.50;;;;;;;4.16;73.68;94310.59;4943419;28;20228;-76
2023/03/12 00:22:10;;;;;;;7.20;4.13;;;;;;;4.04;72.96;94312.81;4961634;28;20558;-75
2023/03/12 00:24:35;;;;;;;10.03;4.20;;;;;;;3.91;74.00;94318.59;4935070;28;21313;-76
2023/03/12 00:27:01;;;;;;;9.50;4.20;;;;;;;3.97;73.98;94322.25;4962297;28;20628;-76
2023/03/12 00:29:26;;;;;;;6.87;3.93;;;;;;;4.03;73.79;94321.56;4940084;28;20935;-76
2023/03/12 00:31:52;;;;;;;11.00;4.00;;;;;;;4.09;73.34;94331.22;4943679;28;20739;-76
2023/03/12 00:34:17;;;;;;;11.70;4.20;;;;;;;3.99;73.82;94328.06;4956933;28;20271;-75
2023/03/12 00:36:42;;;;;;;7.50;4.27;;;;;;;4.00;73.09;94327.09;4925470;28;20236;-76
2023/03/12 00:39:08;;;;;;;8.37;4.10;;;;;;;3.99;73.29;94328.06;4932045;28;20238;-75
2023/03/12 00:41:34;;;;;;;11.67;4.30;;;;;;;3.95;73.59;94327.63;4957825;28;20237;-76
2023/03/12 00:44:01;;;;;;;8.37;4.30;;;;;;;4.00;73.22;94327.09;4929289;28;20245;-74
2023/03/12 00:46:26;;;;;;;6.93;4.47;;;;;;;4.01;73.50;94332.09;4938088;28;20239;-75
2023/03/12 00:48:52;;;;;;;7.90;4.30;;;;;;;4.02;72.35;94333.72;4934273;28;20923;-75
2023/03/12 00:51:17;;;;;;;8.50;4.63;;;;;;;3.99;73.41;94322.88;4917704;28;20337;-77
2023/03/12 00:53:43;;;;;;;9.43;4.30;;;;;;;3.93;73.80;94328.78;4944414;28;20286;-76
2023/03/12 00:56:08;;;;;;;7.47;4.30;;;;;;;3.90;74.22;94340.28;4922168;28;20281;-76
2023/03/12 00:58:34;;;;;;;10.70;4.70;;;;;;;3.88;73.97;94337.06;4953776;28;20299;-76
2023/03/12 01:00:59;;;;;;;9.13;4.57;;;;;;;4.03;74.23;94331.94;4941514;28;20240;-76
2023/03/12 01:03:25;;;;;;;9.90;4.53;;;;;;;3.93;74.17;94333.94;4943111;28;20319;-75
2023/03/12 01:05:53;;;;;;;6.63;4.60;;;;;;;3.94;74.35;94346.69;4938711;28;20324;-76
2023/03/12 01:08:19;;;;;;;7.23;4.23;;;;;;;3.90;73.73;94348.03;4951653;28;20244;-75
2023/03/12 01:10:44;;;;;;;6.03;4.40;;;;;;;3.76;74.44;94343.59;4957895;28;20226;-76
2023/03/12 01:13:10;;;;;;;10.20;4.87;;;;;;;3.75;74.00;94341.97;4931076;28;20619;-77
2023/03/12 01:15:35;;;;;;;10.37;5.03;;;;;;;3.71;74.29;94347.69;4967360;28;20327;-75
2023/03/12 01:18:01;;;;;;;8.90;4.47;;;;;;;3.68;74.84;94353.22;4963297;28;20804;-76
2023/03/12 01:20:26;;;;;;;6.63;4.30;;;;;;;3.72;74.86;94357.88;4950568;28;20297;-75
2023/03/12 01:22:52;;;;;;;6.07;4.33;;;;;;;3.77;74.08;94358.16;4946593;28;20233;-75
2023/03/12 01:25:17;;;;;;;6.57;4.60;;;;;;;3.72;74.53;94359.66;4943349;28;20225;-75
2023/03/12 01:27:43;;;;;;;8.37;4.30;;;;;;;3.77;74.49;94365.13;4934878;28;20228;-77
2023/03/12 01:30:09;;;;;;;8.60;4.63;;;;;;;3.86;73.99;94364.91;4952318;28;20229;-76
2023/03/12 01:32:35;;;;;;;9.23;4.20;;;;;;;3.69;74.19;94365.16;4925848;28;20253;-75
2023/03/12 01:35:00;;;;;;;6.53;4.40;;;;;;;3.73;74.08;94359.47;4916599;28;20264;-77
2023/03/12 01:37:26;;;;;;;8.93;4.20;;;;;;;3.54;74.20;94362.50;4967145;28;20235;-75
2023/03/12 01:39:52;;;;;;;7.60;4.50;;;;;;;3.57;74.97;94356.19;4945533;28;20233;-75
2023/03/12 01:42:17;;;;;;;6.40;4.30;;;;;;;3.52;74.71;94354.09;4933276;28;20240;-74
2023/03/12 01:45:00;;;;;;;8.57;4.60;;;;;;;3.66;75.00;94358.53;4933463;28;20233;-74
2023/03/12 01:47:26;;;;;;;5.53;4.40;;;;;;;3.65;74.66;94356.94;4946646;28;20229;-77
2023/03/12 01:49:52;;;;;;;6.60;4.40;;;;;;;3.63;74.97;94358.09;4934770;28;20312;-77
2023/03/12 01:52:24;;;;;;;9.43;4.47;;;;;;;3.68;74.42;94355.81;4931423;28;20229;-74
2023/03/12 01:55:08;;;;;;;9.37;4.90;;;;;;;3.59;74.79;94352.44;4938058;28;20637;-74
2023/03/12 01:57:42;;;;;;;8.17;4.70;;;;;;;3.53;74.25;94358.31;4965753;28;20228;-75
2023/03/12 02:00:17;;;;;;;9.97;4.70;;;;;;;3.56;75.15;94354.59;4948858;28;21250;-76
2023/03/12 02:02:43;;;;;;;6.27;4.70;;;;;;;3.50;76.75;94358.66;4962095;28;20239;-76
2023/03/12 02:05:14;;;;;;;7.97;4.40;;;;;;;3.64;75.15;94367.44;4925227;28;20313;-77
2023/03/12 02:07:39;;;;;;;11.20;5.07;;;;;;;3.61;74.93;94366.00;4951729;28;20247;-76
2023/03/12 02:10:05;;;;;;;9.97;5.10;;;;;;;3.66;75.52;94374.06;4921207;28;20228;-75
2023/03/12 02:12:30;;;;;;;7.37;4.53;;;;;;;3.58;74.45;94373.31;4948356;28;20228;-75
2023/03/12 02:14:56;;;;;;;9.90;4.53;;;;;;;3.52;75.17;94379.16;4921438;28;20291;-75
2023/03/12 02:17:21;;;;;;;5.93;4.40;;;;;;;3.50;74.03;94368.19;4940181;28;20315;-76
2023/03/12 02:20:06;;;;;;;9.10;4.43;;;;;;;3.45;74.80;94373.06;4933876;28;20253;-75
2023/03/12 02:22:32;;;;;;;7.07;4.50;;;;;;;3.51;74.22;94367.22;4943044;28;20248;-75
2023/03/12 02:25:16;;;;;;;7.13;4.40;;;;;;;3.44;74.08;94374.06;4961468;28;20248;-76
2023/03/12 02:27:41;;;;;;;8.47;4.33;;;;;;;3.40;74.91;94373.56;4957552;28;20324;-75
2023/03/12 02:30:07;;;;;;;7.53;3.93;;;;;;;3.54;74.08;94383.19;4947100;28;20300;-75
2023/03/12 02:32:35;;;;;;;7.37;4.00;;;;;;;3.37;74.38;94381.66;4948753;28;20602;-75
2023/03/12 02:35:00;;;;;;;7.23;4.20;;;;;;;3.45;74.29;94394.56;4919100;28;20247;-76
2023/03/12 02:37:26;;;;;;;5.77;4.10;;;;;;;3.31;74.13;94390.09;4932364;28;20230;-75
2023/03/12 02:39:59;;;;;;;7.43;4.27;;;;;;;3.31;75.17;94384.94;4963308;28;20227;-76
2023/03/12 02:42:25;;;;;;;9.60;3.80;;;;;;;3.44;75.26;94385.19;4931138;28;20240;-76
2023/03/12 02:44:50;;;;;;;7.33;4.17;;;;;;;3.45;74.97;94384.22;4950018;28;20234;-77
2023/03/12 02:47:16;;;;;;;7.33;4.20;;;;;;;3.33;74.54;94378.63;4956208;28;20317;-74
2023/03/12 02:49:41;;;;;;;8.77;4.00;;;;;;;3.36;74.92;94373.13;4949676;28;20240;-77
2023/03/12 02:52:07;;;;;;;8.50;4.27;;;;;;;3.25;75.56;94370.06;4961814;28;20228;-75
2023/03/12 02:54:32;;;;;;;6.27;4.03;;;;;;;3.17;75.83;94386.44;4934763;28;20247;-77
2023/03/12 02:56:58;;;;;;;6.67;4.07;;;;;;;3.30;75.84;94378.13;4934844;28;20281;-74
2023/03/12 02:59:25;;;;;;;8.13;4.13;;;;;;;3.27;75.58;94371.53;4945256;28;20228;-76
2023/03/12 03:01:54;;;;;;;8.37;4.40;;;;;;;3.18;76.16;94362.19;4934042;28;20266;-74
2023/03/12 03:04:20;;;;;;;6.03;4.27;;;;;;;3.24;76.66;94361.53;4945724;28;20234;-76
2023/03/12 03:06:47;;;;;;;8.90;4.40;;;;;;;3.26;76.50;94362.16;4926822;28;20242;-75
2023/03/12 03:09:12;;;;;;;8.63;4.33;;;;;;;3.21;76.38;94354.13;4935189;28;20228;-75
2023/03/12 03:11:38;;;;;;;6.87;4.23;;;;;;;3.15;76.83;94348.81;4941040;28;20303;-76
2023/03/12 03:14:05;;;;;;;6.73;4.30;;;;;;;3.05;77.99;94349.03;4938028;28;20713;-76
2023/03/12 03:16:31;;;;;;;8.63;4.47;;;;;;;3.11;76.66;94348.34;4975129;28;20233;-77
2023/03/12 03:18:56;;;;;;;7.67;4.33;;;;;;;3.15;76.87;94370.28;4946973;28;20236;-77
2023/03/12 03:21:22;;;;;;;7.27;4.33;;;;;;;3.14;76.71;94384.19;4934491;28;20229;-75
2023/03/12 03:23:48;;;;;;;6.30;4.23;;;;;;;3.15;76.99;94390.97;4960509;28;20232;-76
2023/03/12 03:26:14;;;;;;;8.30;4.20;;;;;;;3.04;77.00;94396.50;4930640;28;20237;-76
2023/03/12 03:28:40;;;;;;;6.93;4.07;;;;;;;3.19;76.08;94396.63;4933364;28;20742;-75
2023/03/12 03:31:05;;;;;;;6.10;4.17;;;;;;;2.98;76.85;94396.38;4959746;28;20244;-77
2023/03/12 03:33:32;;;;;;;9.30;4.30;;;;;;;3.14;76.78;94397.13;4947033;28;20233;-76
2023/03/12 03:35:58;;;;;;;8.07;4.57;;;;;;;3.10;76.35;94392.47;4960309;28;20289;-74
2023/03/12 03:38:25;;;;;;;6.27;4.17;;;;;;;3.08;77.05;94390.03;4921139;28;20237;-77
2023/03/12 03:40:51;;;;;;;7.97;4.10;;;;;;;3.16;77.34;94402.94;4943334;28;20232;-78
2023/03/12 03:43:16;;;;;;;9.03;4.40;;;;;;;3.02;77.08;94401.03;4972788;28;20236;-76
2023/03/12 03:45:43;;;;;;;7.80;3.83;;;;;;;3.07;76.19;94408.28;4933545;28;20237;-76
2023/03/12 03:48:09;;;;;;;8.13;3.90;;;;;;;3.09;75.87;94408.94;4961335;28;20241;-76
2023/03/12 03:50:39;;;;;;;5.90;4.07;;;;;;;3.03;76.03;94410.41;4945210;28;20244;-76
2023/03/12 03:53:05;;;;;;;9.53;4.07;;;;;;;3.03;75.68;94413.00;4949194;28;20241;-76
2023/03/12 03:55:31;;;;;;;8.33;4.40;;;;;;;2.94;75.51;94411.38;4963119;28;20228;-76
2023/03/12 03:57:56;;;;;;;7.27;4.07;;;;;;;2.90;76.10;94414.47;4929109;28;20691;-76
2023/03/12 04:00:22;;;;;;;8.57;4.10;;;;;;;2.94;75.93;94397.69;4931980;28;20266;-76
2023/03/12 04:02:47;;;;;;;6.03;4.00;;;;;;;2.89;76.11;94415.47;4931517;28;20232;-76
2023/03/12 04:05:14;;;;;;;5.97;4.10;;;;;;;2.74;75.98;94402.41;4916088;28;20229;-74
2023/03/12 04:07:40;;;;;;;6.77;3.57;;;;;;;2.83;75.41;94421.28;4944703;28;20241;-76
2023/03/12 04:10:06;;;;;;;7.30;3.93;;;;;;;2.81;74.80;94426.63;4924515;28;20237;-76
2023/03/12 04:12:32;;;;;;;6.43;3.83;;;;;;;2.70;75.56;94429.53;4920335;28;20246;-76
2023/03/12 04:14:57;;;;;;;11.13;3.70;;;;;;;2.79;75.25;94432.91;4945017;28;20237;-76
2023/03/12 04:17:23;;;;;;;6.13;3.60;;;;;;;2.80;75.03;94445.66;4918983;28;20686;-76
2023/03/12 04:19:48;;;;;;;9.43;3.77;;;;;;;2.78;74.84;94439.03;4941825;28;20232;-77
2023/03/12 04:22:14;;;;;;;6.97;3.77;;;;;;;2.79;73.77;94443.25;4963075;28;20653;-76
2023/03/12 04:24:39;;;;;;;6.63;3.80;;;;;;;2.68;72.58;94452.94;4928482;28;20324;-75
2023/03/12 04:27:05;;;;;;;5.73;3.20;;;;;;;2.72;72.64;94461.19;4933710;28;20229;-75
2023/03/12 04:29:30;;;;;;;6.30;3.30;;;;;;;2.59;72.00;94461.69;4932761;28;20323;-76
2023/03/12 04:31:56;;;;;;;4.47;3.20;;;;;;;2.65;72.13;94460.22;4945143;28;20236;-76
2023/03/12 04:34:21;;;;;;;5.10;3.30;;;;;;;2.59;71.69;94466.03;4946713;28;20292;-76
2023/03/12 04:36:47;;;;;;;7.13;3.30;;;;;;;2.70;71.54;94479.41;4944220;28;20293;-77
2023/03/12 04:39:15;;;;;;;5.77;3.10;;;;;;;2.66;71.58;94480.72;4953858;28;20600;-76
2023/03/12 04:41:41;;;;;;;5.80;3.03;;;;;;;2.62;71.30;94481.22;4951245;28;20229;-75
2023/03/12 04:44:06;;;;;;;6.83;3.40;;;;;;;2.51;71.16;94484.09;4957047;28;20650;-76
2023/03/12 04:46:32;;;;;;;4.97;3.17;;;;;;;2.56;71.41;94487.00;4943958;28;20240;-76
2023/03/12 04:49:01;;;;;;;4.90;3.00;;;;;;;2.60;71.22;94488.31;4921739;28;20228;-77
2023/03/12 04:51:26;;;;;;;6.07;3.10;;;;;;;2.58;70.85;94498.00;4940073;28;20644;-77
2023/03/12 04:53:52;;;;;;;4.43;3.00;;;;;;;2.59;71.59;94500.41;4965097;28;20244;-76
2023/03/12 04:56:17;;;;;;;5.00;3.27;;;;;;;2.64;71.15;94505.91;4944578;28;20232;-75
2023/03/12 04:58:43;;;;;;;6.70;3.43;;;;;;;2.49;71.26;94504.94;4970912;28;20698;-76
2023/03/12 05:01:18;;;;;;;5.47;3.40;;;;;;;2.68;71.05;94503.78;4964875;28;20818;-75
2023/03/12 05:03:44;;;;;;;6.33;3.20;;;;;;;2.70;71.35;94522.53;4934330;28;20235;-76
2023/03/12 05:06:09;;;;;;;9.23;4.00;;;;;;;2.71;70.92;94524.97;4956932;28;20617;-77
2023/03/12 05:08:34;;;;;;;5.67;3.40;;;;;;;2.69;71.27;94532.06;4933238;28;20235;-75
2023/03/12 05:11:00;;;;;;;5.27;3.10;;;;;;;2.61;71.24;94528.66;4978879;28;20742;-75
2023/03/12 05:13:25;;;;;;;7.17;3.50;;;;;;;2.57;71.44;94530.78;4920806;28;20235;-75
2023/03/12 05:15:51;;;;;;;4.90;2.97;;;;;;;2.68;71.77;94538.19;4936460;28;20718;-76
2023/03/12 05:18:19;;;;;;;6.03;3.40;;;;;;;2.66;71.55;94540.13;4953224;28;20306;-74
2023/03/12 05:20:44;;;;;;;5.43;3.10;;;;;;;2.65;71.52;94550.63;4951546;28;20323;-76
2023/03/12 05:23:10;;;;;;;7.63;3.23;;;;;;;2.58;71.81;94547.09;4950884;28;20244;-76
2023/03/12 05:25:39;;;;;;;8.67;3.60;;;;;;;2.59;71.39;94544.31;4967405;28;20267;-76
2023/03/12 05:28:05;;;;;;;5.63;3.40;;;;;;;2.61;72.17;94551.91;4952404;28;20232;-75
2023/03/12 05:30:30;;;;;;;7.37;3.30;;;;;;;2.72;72.00;94554.97;4943591;28;20248;-76
2023/03/12 05:32:56;;;;;;;5.83;3.20;;;;;;;2.65;71.98;94546.25;4917921;28;20611;-76
2023/03/12 05:35:21;;;;;;;7.63;3.50;;;;;;;2.70;71.33;94545.78;4934349;28;20232;-76
2023/03/12 05:37:47;;;;;;;11.17;3.50;;;;;;;2.76;71.99;94555.47;4967790;28;20232;-75
2023/03/12 05:40:12;;;;;;;9.07;3.50;;;;;;;2.90;71.43;94556.59;4938241;28;20320;-77
2023/03/12 05:42:38;;;;;;;6.97;3.40;;;;;;;3.23;69.39;94568.53;4950458;28;20228;-78
2023/03/12 05:45:04;;;;;;;7.30;3.67;;;;;;;3.43;68.07;94569.81;4935682;28;20256;-77
2023/03/12 05:47:30;;;;;;;6.00;3.20;;;;;;;3.71;67.02;94583.16;4945990;28;20817;-76
2023/03/12 05:49:55;;;;;;;7.67;3.27;;;;;;;4.07;65.00;94577.38;4974224;28;20229;-76
2023/03/12 05:52:21;;;;;;;5.50;3.13;;;;;;;3.85;65.69;94575.50;4950415;28;20235;-76
2023/03/12 05:54:46;;;;;;;4.27;2.67;;;;;;;3.80;66.43;94571.78;4964883;28;20225;-76
2023/03/12 05:57:12;;;;;;;6.37;2.63;;;;;;;3.93;65.73;94582.44;4935623;28;20646;-77
2023/03/12 05:59:37;;;;;;;5.60;2.70;;;;;;;3.78;65.75;94590.09;4938805;28;20618;-77
2023/03/12 06:02:03;;;;;;;7.57;2.80;;;;;;;4.05;65.50;94591.44;4930663;28;20232;-78
2023/03/12 06:04:28;;;;;;;5.10;2.70;;;;;;;4.07;63.74;94605.84;4932208;28;20703;-78
2023/03/12 06:06:54;;;;;;;4.37;2.60;;;;;;;4.00;64.20;94615.25;4946986;28;20237;-77
2023/03/12 06:09:19;;;;;;;7.27;2.93;;;;;;;3.96;64.83;94603.59;4931425;28;20232;-77
2023/03/12 06:11:45;;;;;;;6.70;2.80;;;;;;;3.74;63.25;94611.28;4935420;28;20232;-76
2023/03/12 06:14:11;;;;;;;6.33;2.60;;;;;;;3.81;63.45;94612.25;4917027;28;20388;-76
2023/03/12 06:16:37;;;;;;;5.10;2.77;;;;;;;3.65;64.77;94626.03;4951560;28;20245;-76
2023/03/12 06:19:03;;;;;;;4.37;2.53;;;;;;;3.51;63.19;94625.91;4965380;28;20613;-76
2023/03/12 06:21:30;;;;;;;5.37;2.60;;;;;;;3.56;63.30;94631.38;4973071;28;20236;-76
2023/03/12 06:23:55;;;;;;;8.43;2.93;;;;;;;3.78;63.59;94634.06;4965759;28;20300;-78
2023/03/12 06:26:21;;;;;;;4.27;2.97;;;;;;;3.79;62.77;94635.72;4962099;28;20232;-76
2023/03/12 06:28:48;;;;;;;6.90;3.10;;;;;;;3.69;63.35;94631.66;4924798;28;20615;-76
2023/03/12 06:31:13;;;;;;;4.50;2.67;;;;;;;3.65;63.14;94641.56;4931558;28;20225;-76
2023/03/12 06:33:39;;;;;;;4.03;2.70;;;;;;;3.25;63.64;94644.16;4960180;28;20772;-76
2023/03/12 06:36:05;;;;;;;4.97;2.77;;;;;;;3.31;63.67;94643.53;4931450;28;20243;-76
2023/03/12 06:38:31;;;;;;;6.13;2.60;;;;;;;3.50;63.44;94647.53;4925632;28;20236;-76
2023/03/12 06:40:58;;;;;;;7.03;2.73;;;;;;;3.57;63.73;94648.50;4944965;28;20287;-76
2023/03/12 06:43:24;;;;;;;4.57;2.70;;;;;;;3.85;63.57;94663.50;4949820;28;20780;-78
2023/03/12 06:45:49;;;;;;;5.43;2.80;;;;;;;3.95;62.88;94653.78;4958448;28;20850;-76
2023/03/12 06:48:15;;;;;;;4.97;2.70;;;;;;;4.05;62.13;94667.34;4966566;28;20291;-77
2023/03/12 06:50:43;;;;;;;3.60;2.77;;;;;;;3.89;61.15;94675.13;4942548;28;20260;-77
2023/03/12 06:53:09;;;;;;;3.00;2.47;;;;;;;4.37;60.88;94668.22;4978512;28;20313;-78
2023/03/12 06:55:34;;;;;;;3.67;2.50;;;;;;;4.25;59.02;94669.56;4912641;28;20262;-77
2023/03/12 06:58:01;;;;;;;4.93;2.70;;;;;;;4.22;58.64;94688.81;4919087;28;20244;-76
2023/03/12 07:00:26;;;;;;;6.47;2.63;;;;;;;4.35;59.31;94690.88;4977885;28;20252;-77
2023/03/12 07:02:52;;;;;;;7.83;2.70;;;;;;;4.41;58.01;94683.25;4929782;28;20335;-76
2023/03/12 07:05:17;;;;;;;5.60;2.50;;;;;;;4.71;56.95;94681.66;4947396;28;21002;-77
2023/03/12 07:07:43;;;;;;;3.80;2.73;;;;;;;4.67;56.26;94695.94;4947902;28;20229;-76
2023/03/12 07:10:10;;;;;;;3.97;2.50;;;;;;;4.72;56.19;94699.66;4914125;28;20310;-76
2023/03/12 07:12:35;;;;;;;5.17;2.60;;;;;;;4.64;57.05;94707.44;4922470;28;20239;-77
2023/03/12 07:15:01;;;;;;;4.13;2.47;;;;;;;5.30;56.24;94713.91;4930528;28;20241;-76
2023/03/12 07:17:26;;;;;;;4.93;2.90;;;;;;;5.31;55.22;94712.91;4933856;28;20673;-76
2023/03/12 07:19:52;;;;;;;4.20;2.63;;;;;;;5.34;54.60;94717.75;4932397;28;20743;-77
2023/03/12 07:22:18;;;;;;;4.60;2.70;;;;;;;5.42;56.08;94718.50;4935349;28;20241;-76
2023/03/12 07:24:43;;;;;;;4.83;2.60;;;;;;;5.01;55.14;94718.94;4933409;28;20244;-77
2023/03/12 07:27:09;;;;;;;5.47;2.73;;;;;;;4.97;55.90;94718.47;4944110;28;20232;-75
2023/03/12 07:29:34;;;;;;;7.07;2.53;;;;;;;4.80;55.62;94726.50;4982454;28;20235;-75
2023/03/12 07:32:00;;;;;;;4.33;2.70;;;;;;;4.79;56.08;94723.09;4938150;28;20701;-76
2023/03/12 07:34:26;;;;;;;5.70;2.80;;;;;;;5.13;55.33;94722.75;4957523;28;20225;-77
2023/03/12 07:36:52;;;;;;;5.93;3.00;;;;;;;5.04;56.02;94723.78;4927509;28;20672;-78
2023/03/12 07:39:18;;;;;;;5.23;3.17;;;;;;;4.91;55.84;94728.72;4951543;28;20239;-76
2023/03/12 07:41:43;;;;;;;5.17;2.73;;;;;;;5.04;55.85;94739.34;4954498;28;20228;-76
2023/03/12 07:44:09;;;;;;;4.50;2.63;;;;;;;4.98;55.75;94734.84;4949144;28;20240;-78
2023/03/12 07:46:35;;;;;;;5.47;2.67;;;;;;;5.01;55.48;94722.34;4940966;28;20324;-76
2023/03/12 07:49:00;;;;;;;4.13;2.70;;;;;;;5.05;55.85;94731.41;4931666;28;20726;-76
2023/03/12 07:51:26;;;;;;;3.90;2.60;;;;;;;4.99;55.30;94737.25;4942407;28;20241;-75
2023/03/12 07:53:51;;;;;;;3.87;2.60;;;;;;;4.99;56.06;94750.22;4927704;28;20732;-77
2023/03/12 07:56:17;;;;;;;5.70;2.80;;;;;;;4.97;56.31;94752.16;4942263;28;20235;-77
2023/03/12 07:58:42;;;;;;;5.73;2.90;;;;;;;5.11;55.50;94745.47;4946694;28;20358;-76
2023/03/12 08:01:08;;;;;;;3.67;2.67;;;;;;;4.92;55.89;94745.91;4947767;28;20237;-75
2023/03/12 08:03:34;;;;;;;6.43;3.00;;;;;;;4.88;55.16;94755.78;4978386;28;20235;-76
2023/03/12 08:06:01;;;;;;;3.90;2.60;;;;;;;4.72;54.96;94758.44;4944125;28;20236;-77
2023/03/12 08:08:26;;;;;;;4.40;2.83;;;;;;;4.71;55.30;94762.00;4963552;28;20229;-76
2023/03/12 08:10:52;;;;;;;5.20;3.00;;;;;;;4.63;56.63;94759.47;4959250;28;20262;-75
2023/03/12 08:13:18;;;;;;;5.83;3.10;;;;;;;4.37;55.60;94756.28;4911194;28;20738;-75
2023/03/12 08:15:43;;;;;;;5.83;2.90;;;;;;;4.53;56.12;94764.84;4927760;28;20311;-76
2023/03/12 08:18:09;;;;;;;4.60;2.70;;;;;;;4.81;55.26;94782.53;4917036;28;20237;-76
2023/03/12 08:20:34;;;;;;;4.77;2.90;;;;;;;4.60;55.57;94789.09;4974318;28;20238;-75
2023/03/12 08:23:00;;;;;;;6.67;3.17;;;;;;;4.74;56.26;94775.44;4949244;28;20229;-75
2023/03/12 08:25:25;;;;;;;5.17;2.97;;;;;;;4.64;55.88;94800.75;4960711;28;20623;-75
2023/03/12 08:27:51;;;;;;;5.83;2.90;;;;;;;4.58;55.76;94791.06;4925480;28;20228;-75
2023/03/12 08:30:16;;;;;;;4.17;2.87;;;;;;;4.52;55.06;94781.34;4969452;28;20697;-76
2023/03/12 08:32:42;;;;;;;4.33;2.83;;;;;;;4.77;55.78;94782.09;4948194;28;20228;-76
2023/03/12 08:35:08;;;;;;;4.67;2.80;;;;;;;4.64;55.49;94794.75;4931167;28;20291;-76
2023/03/12 08:37:34;;;;;;;4.60;3.00;;;;;;;4.73;56.15;94796.34;4933988;28;21056;-75
2023/03/12 08:40:00;;;;;;;4.43;2.73;;;;;;;4.68;54.95;94783.09;4944543;28;20228;-74
2023/03/12 08:42:26;;;;;;;5.17;3.00;;;;;;;4.87;55.00;94795.66;4946350;28;20233;-77
2023/03/12 08:44:51;;;;;;;4.50;3.07;;;;;;;5.01;56.30;94792.38;4960504;28;20974;-76
2023/03/12 08:47:17;;;;;;;5.57;2.80;;;;;;;5.02;55.55;94790.56;4945090;28;20241;-74
2023/03/12 08:49:42;;;;;;;4.27;2.77;;;;;;;5.07;54.04;94796.06;4946808;28;20233;-73
2023/03/12 08:52:08;;;;;;;4.47;2.70;;;;;;;5.24;54.43;94789.81;4943086;28;20229;-74
2023/03/12 08:54:33;;;;;;;5.27;2.60;;;;;;;5.30;53.30;94799.53;4938801;28;20241;-74
2023/03/12 08:56:59;;;;;;;7.20;2.90;;;;;;;5.34;54.03;94800.78;4925780;28;20229;-76
2023/03/12 08:59:24;;;;;;;3.50;2.67;;;;;;;5.52;54.48;94803.13;4926982;28;20682;-76
2023/03/12 09:01:50;;;;;;;5.50;2.80;;;;;;;5.66;54.38;94797.22;4925813;28;20237;-73
2023/03/12 09:04:15;;;;;;;4.80;3.03;;;;;;;5.80;54.00;94812.84;4943311;28;20237;-74
2023/03/12 09:06:41;;;;;;;7.23;3.17;;;;;;;5.62;53.76;94816.69;4965409;28;20282;-76
2023/03/12 09:09:10;;;;;;;5.57;3.07;;;;;;;5.72;53.71;94801.69;4941896;28;20241;-78
2023/03/12 09:11:38;;;;;;;4.83;2.73;;;;;;;5.75;53.63;94803.94;4945542;28;20285;-75
2023/03/12 09:14:03;;;;;;;7.67;3.07;;;;;;;5.74;54.53;94790.16;4937047;28;20778;-74
2023/03/12 09:16:29;;;;;;;6.43;3.40;;;;;;;5.52;53.33;94801.31;4950209;28;20228;-74
2023/03/12 09:18:54;;;;;;;7.33;3.17;;;;;;;5.82;53.12;94817.84;4933114;28;20628;-75
2023/03/12 09:21:20;;;;;;;5.37;2.90;;;;;;;5.91;52.36;94822.03;4959363;28;20227;-74
2023/03/12 09:23:46;;;;;;;4.70;3.10;;;;;;;5.70;52.35;94806.25;4929723;28;20279;-74
2023/03/12 09:26:11;;;;;;;8.47;3.17;;;;;;;5.80;51.98;94793.84;4959080;28;20235;-74
2023/03/12 09:28:37;;;;;;;4.13;2.90;;;;;;;5.75;51.74;94793.56;4932939;28;20239;-74
2023/03/12 09:31:03;;;;;;;5.60;2.90;;;;;;;5.60;51.08;94803.06;4924201;28;20235;-75
2023/03/12 09:33:29;;;;;;;4.97;2.80;;;;;;;5.91;51.67;94812.47;4950244;28;20228;-74
2023/03/12 09:35:56;;;;;;;5.67;3.03;;;;;;;5.94;51.75;94814.72;4960547;28;20233;-75
2023/03/12 09:38:22;;;;;;;4.23;2.97;;;;;;;5.92;50.87;94813.28;4928493;28;20233;-75
2023/03/12 09:40:47;;;;;;;4.70;3.10;;;;;;;5.93;50.67;94802.72;4974697;28;20221;-74
2023/03/12 09:43:29;;;;;;;4.63;2.90;;;;;;;5.94;51.43;94801.75;4948169;28;20658;-73
2023/03/12 09:45:54;;;;;;;6.73;2.90;;;;;;;6.24;51.51;94805.22;4958530;28;20272;-74
2023/03/12 09:48:30;;;;;;;4.37;3.00;;;;;;;6.29;51.91;94807.28;4942998;28;20685;-75
2023/03/12 09:50:56;;;;;;;4.17;3.03;;;;;;;6.33;51.23;94801.56;4951906;28;20229;-75
2023/03/12 09:53:32;;;;;;;5.50;3.20;;;;;;;6.62;50.35;94793.78;4920367;28;20237;-73
2023/03/12 09:55:57;;;;;;;4.27;2.80;;;;;;;6.69;49.80;94794.69;4945380;28;20233;-74
2023/03/12 09:58:33;;;;;;;4.33;2.90;;;;;;;6.69;49.15;94797.31;4960153;28;20260;-73
2023/03/12 10:00:58;;;;;;;3.60;2.70;;;;;;;6.52;48.89;94806.25;4931724;28;20275;-74
2023/03/12 10:03:30;;;;;;;5.47;3.13;;;;;;;6.44;49.16;94808.94;4940875;28;20714;-75
2023/03/12 10:06:07;;;;;;;4.17;2.70;;;;;;;6.57;49.41;94798.72;4944664;28;20233;-73
2023/03/12 10:08:39;;;;;;;4.17;2.87;;;;;;;6.86;48.42;94795.31;4946498;28;20236;-75
2023/03/12 10:11:15;;;;;;;6.43;2.73;;;;;;;6.71;47.91;94794.53;4933203;28;20233;-75
2023/03/12 10:14:17;;;;;;;5.70;3.00;;;;;;;6.23;48.41;94792.41;4945560;28;20323;-74
2023/03/12 10:16:52;;;;;;;5.40;3.00;;;;;;;6.60;48.90;94785.38;4933572;28;20642;-73
2023/03/12 10:19:27;;;;;;;4.07;2.90;;;;;;;6.79;48.18;94792.66;4929960;28;20229;-75
2023/03/12 10:22:25;;;;;;;4.53;2.53;;;;;;;7.04;47.84;94784.56;4949123;28;20284;-73
2023/03/12 10:25:00;;;;;;;4.67;2.83;;;;;;;7.10;46.54;94776.03;4964666;28;20252;-73
2023/03/12 10:27:27;;;;;;;4.17;2.70;;;;;;;7.25;45.56;94780.22;4934594;28;20229;-72
2023/03/12 10:29:53;;;;;;;3.63;2.70;;;;;;;7.08;46.05;94788.41;4935609;28;20239;-74
2023/03/12 10:32:23;;;;;;;4.67;2.80;;;;;;;7.48;45.36;94780.88;4947769;28;20229;-73
2023/03/12 10:34:55;;;;;;;6.43;2.70;;;;;;;7.61;45.53;94780.22;4964652;28;20241;-74
2023/03/12 10:37:36;;;;;;;3.40;2.53;;;;;;;7.47;45.34;94791.50;4934921;28;20758;-73
2023/03/12 10:40:04;;;;;;;4.40;2.70;;;;;;;7.59;46.97;94789.22;4929250;28;20247;-74
2023/03/12 10:42:30;;;;;;;6.40;2.93;;;;;;;7.38;46.34;94782.16;4934051;28;20275;-73
2023/03/12 10:44:58;;;;;;;3.80;2.90;;;;;;;7.41;46.64;94787.81;4944471;28;20225;-73
2023/03/12 10:47:38;;;;;;;5.57;3.00;;;;;;;7.62;47.06;94792.25;4941710;28;21035;-74
2023/03/12 10:50:17;;;;;;;4.03;2.80;;;;;;;7.84;47.27;94793.06;4949686;28;20225;-73
2023/03/12 10:52:44;;;;;;;5.00;2.67;;;;;;;7.96;44.99;94783.75;4959259;28;20232;-74
2023/03/12 10:55:23;;;;;;;6.80;3.10;;;;;;;8.26;45.21;94790.50;4946785;28;20229;-74
2023/03/12 10:57:48;;;;;;;6.50;2.93;;;;;;;8.37;44.77;94779.53;4973306;28;20619;-74
2023/03/12 11:00:32;;;;;;;4.83;2.80;;;;;;;8.68;45.28;94777.34;4941274;28;20240;-75
2023/03/12 11:03:04;;;;;;;4.60;2.83;;;;;;;8.40;44.42;94778.34;4918969;28;20232;-74
2023/03/12 11:05:47;;;;;;;5.50;2.83;;;;;;;8.27;44.96;94778.25;4924416;28;20607;-73
2023/03/12 11:08:32;;;;;;;4.10;2.57;;;;;;;8.35;45.11;94778.09;4946950;28;20286;-73
2023/03/12 11:10:59;;;;;;;3.23;2.60;;;;;;;8.54;44.34;94774.84;4937586;28;20261;-73
2023/03/12 11:13:35;;;;;;;5.00;2.80;;;;;;;8.76;43.07;94776.41;4953762;28;20229;-74
2023/03/12 11:16:24;;;;;;;3.43;2.60;;;;;;;9.12;42.75;94773.56;4937337;28;20259;-74
2023/03/12 11:18:58;;;;;;;3.87;2.70;;;;;;;9.14;43.56;94777.59;4945187;28;20293;-75
2023/03/12 11:21:24;;;;;;;4.47;2.90;;;;;;;9.36;42.68;94775.69;4964365;28;20224;-74
2023/03/12 11:23:55;;;;;;;4.37;2.80;;;;;;;9.24;42.72;94766.81;4932951;28;20229;-74
2023/03/12 11:26:28;;;;;;;4.50;2.77;;;;;;;9.52;41.34;94775.34;4953145;28;20229;-74
2023/03/12 11:29:15;;;;;;;3.63;2.70;;;;;;;9.83;41.73;94780.84;4949734;28;20233;-74
2023/03/12 11:31:43;;;;;;;4.60;2.50;;;;;;;9.47;40.64;94778.53;4946338;28;20234;-72
2023/03/12 11:34:26;;;;;;;3.83;2.70;;;;;;;9.50;40.06;94770.28;4937136;28;20239;-74
2023/03/12 11:37:04;;;;;;;4.20;2.70;;;;;;;9.37;39.89;94772.06;4943827;28;20788;-74
2023/03/12 11:39:42;;;;;;;3.87;2.43;;;;;;;9.21;39.87;94773.22;4939761;28;20311;-73
2023/03/12 11:42:35;;;;;;;4.43;2.70;;;;;;;9.46;38.85;94768.28;4942908;28;20799;-73